PHTO/ITO METAR and TAF weather

Enter ICAO airport designator
Station Type Date Time Source
PHTO METAR 2018/12/15 20:53 UTC NOAA

PHTO 152053Z 02007KT 10SM FEW050 25/18 A3014 RMK AO2 SLP205 T02500178 58004


Station Type Date Time Source
PHTO Decoded METAR 2018/12/15 20:53 UTC NOAA

HILO INTERNATIONAL AIRPORT, HI, United States (PHTO) 19-43N 155-03W 12M
Dec 15, 2018 - 03:53 PM EST / 2018.12.15 2053 UTC
Wind: from the NNE (020 degrees) at 8 MPH (7 KT):0
Visibility: 10 mile(s):0
Sky conditions: mostly clear
Temperature: 77.0 F (25.0 C)
Dew Point: 64.0 F (17.8 C)
Relative Humidity: 64%
Pressure (altimeter): 30.14 in. Hg (1020 hPa)
Pressure tendency: 0.01 inches (0.4 hPa) lower than three hours ago
ob: PHTO 152053Z 02007KT 10SM FEW050 25/18 A3014 RMK AO2 SLP205 T02500178 58004
cycle: 21

Station Type Date Time Source
PHTO TAF 2018/12/15 18:45 UTC NOAA

TAF PHTO 151742Z 1518/1618 24005KT P6SM SCT025 BKN050
FM152000 06009KT P6SM SCT025 SCT050
FM160500 24005KT P6SM SCT020 BKN050


Example: see airport list